createdAt,value
2023-03-27T00:00:16.717Z,84.04
2023-03-27T00:03:05.012Z,84.07
2023-03-27T00:05:32.969Z,84.05
2023-03-27T00:08:01.781Z,84.02
2023-03-27T00:10:29.846Z,83.94
2023-03-27T00:12:58.100Z,83.99
2023-03-27T00:15:26.582Z,84.05
2023-03-27T00:17:55.536Z,84.03
2023-03-27T00:20:24.273Z,84.03
2023-03-27T00:27:12.404Z,84.19
2023-03-27T00:29:40.300Z,84.17
2023-03-27T00:32:08.323Z,84.19
2023-03-27T00:34:36.257Z,84.11
2023-03-27T00:37:05.785Z,83.99
2023-03-27T00:39:34.289Z,83.88
2023-03-27T00:42:02.270Z,83.72
2023-03-27T00:44:34.599Z,83.65
2023-03-27T00:47:04.455Z,83.56
2023-03-27T00:49:36.251Z,83.49
2023-03-27T00:52:06.789Z,83.45
2023-03-27T00:54:40.274Z,83.40
2023-03-27T01:00:51.822Z,83.21
2023-03-27T01:03:21.532Z,83.09
2023-03-27T01:05:51.057Z,83.09
2023-03-27T01:12:54.173Z,83.26
2023-03-27T01:15:48.165Z,83.33
2023-03-27T01:18:40.575Z,83.42
2023-03-27T01:22:05.443Z,83.52
2023-03-27T01:24:56.611Z,83.70
2023-03-27T01:27:51.675Z,83.83
2023-03-27T01:30:31.917Z,83.96
2023-03-27T01:33:14.551Z,84.11
2023-03-27T01:35:52.610Z,84.29
2023-03-27T01:38:32.062Z,84.45
2023-03-27T01:41:21.839Z,84.59
2023-03-27T01:44:03.159Z,84.81
2023-03-27T01:47:03.463Z,84.91
2023-03-27T01:49:41.155Z,85.06
2023-03-27T01:52:16.048Z,85.12
2023-03-27T01:54:58.384Z,85.15
2023-03-27T01:57:31.047Z,85.18
2023-03-27T02:00:18.030Z,85.09
2023-03-27T02:03:00.905Z,85.18
2023-03-27T02:05:42.961Z,85.30
2023-03-27T02:08:17.338Z,85.32
2023-03-27T02:10:50.839Z,85.36
2023-03-27T02:13:40.855Z,85.32
2023-03-27T02:16:15.740Z,85.32
2023-03-27T02:18:50.414Z,85.29
2023-03-27T02:21:18.479Z,85.47
2023-03-27T02:24:02.196Z,85.65
2023-03-27T02:26:33.073Z,85.84
2023-03-27T02:29:32.169Z,85.83
2023-03-27T02:32:25.222Z,85.83
2023-03-27T02:35:17.279Z,85.84
2023-03-27T02:37:59.229Z,85.89
2023-03-27T02:40:39.792Z,85.97
2023-03-27T02:43:21.842Z,85.99
2023-03-27T02:46:15.315Z,86.05
2023-03-27T02:48:47.943Z,86.12
2023-03-27T02:51:23.110Z,86.21
2023-03-27T02:53:57.724Z,86.28
2023-03-27T02:56:32.673Z,86.38
2023-03-27T02:59:08.875Z,86.44
2023-03-27T03:01:39.504Z,86.50
2023-03-27T03:04:30.114Z,86.42
2023-03-27T03:06:59.182Z,86.41
2023-03-27T03:09:31.202Z,86.50
2023-03-27T03:11:59.475Z,86.63
2023-03-27T03:14:38.847Z,86.78
2023-03-27T03:17:06.788Z,86.88
2023-03-27T03:19:34.619Z,86.90
2023-03-27T03:22:02.679Z,86.93
2023-03-27T03:24:44.188Z,86.96
2023-03-27T03:27:21.222Z,87.02
2023-03-27T03:30:25.690Z,87.02
2023-03-27T03:32:55.071Z,87.09
2023-03-27T03:35:25.089Z,87.12
2023-03-27T03:37:53.163Z,87.24
2023-03-27T03:40:21.463Z,87.26
2023-03-27T03:42:52.170Z,87.37
2023-03-27T03:45:20.480Z,87.39
2023-03-27T03:47:48.429Z,87.43
2023-03-27T03:50:16.542Z,87.46
2023-03-27T03:53:01.272Z,87.52
2023-03-27T03:55:29.682Z,87.52
2023-03-27T03:57:58.195Z,87.59
2023-03-27T04:04:35.380Z,87.76
2023-03-27T04:08:44.941Z,87.81
2023-03-27T04:11:12.848Z,87.90
2023-03-27T04:13:40.722Z,87.86
2023-03-27T04:16:09.126Z,87.84
2023-03-27T04:18:40.069Z,87.88
2023-03-27T04:24:50.940Z,87.94
2023-03-27T04:27:19.055Z,87.96
2023-03-27T04:29:47.543Z,88.00
2023-03-27T04:36:36.098Z,88.02
2023-03-27T04:39:04.694Z,87.95
2023-03-27T04:41:32.736Z,88.03
2023-03-27T04:44:00.744Z,88.01
2023-03-27T04:46:28.809Z,88.03
2023-03-27T04:53:09.535Z,88.16
2023-03-27T04:56:17.367Z,88.16
2023-03-27T04:58:46.001Z,88.14
2023-03-27T05:01:13.181Z,87.99
2023-03-27T05:03:39.964Z,87.99
2023-03-27T05:06:07.934Z,88.00
2023-03-27T05:08:35.471Z,87.95
2023-03-27T05:11:02.183Z,87.91
2023-03-27T05:13:29.204Z,87.89
2023-03-27T05:15:58.777Z,87.87
2023-03-27T05:18:25.975Z,87.89
2023-03-27T05:20:52.737Z,87.87
2023-03-27T05:23:19.477Z,87.93
2023-03-27T05:25:59.279Z,88.11
2023-03-27T05:28:29.152Z,88.05
2023-03-27T05:31:22.498Z,87.92
2023-03-27T05:34:54.808Z,87.68
2023-03-27T05:37:25.860Z,87.57
2023-03-27T05:39:56.259Z,87.28
2023-03-27T05:42:24.357Z,87.09
2023-03-27T05:44:52.454Z,87.05
2023-03-27T05:47:21.043Z,86.93
2023-03-27T05:49:48.863Z,86.82
2023-03-27T05:53:10.294Z,86.69
2023-03-27T05:55:39.571Z,86.61
2023-03-27T05:58:10.241Z,86.46
2023-03-27T06:00:44.489Z,86.29
2023-03-27T06:03:14.021Z,85.97
2023-03-27T06:05:42.586Z,85.69
2023-03-27T06:08:57.906Z,85.48
2023-03-27T06:11:48.105Z,85.17
2023-03-27T06:14:20.902Z,85.28
2023-03-27T06:16:49.452Z,85.31
2023-03-27T06:19:19.279Z,85.31
2023-03-27T06:21:49.002Z,85.32
2023-03-27T06:24:17.003Z,85.22
2023-03-27T06:26:48.363Z,84.92
2023-03-27T06:29:16.547Z,84.64
2023-03-27T06:31:44.939Z,84.49
2023-03-27T06:38:33.151Z,84.33
2023-03-27T06:41:01.860Z,84.09
2023-03-27T06:47:54.888Z,83.33
2023-03-27T06:50:25.471Z,82.29
2023-03-27T06:52:53.894Z,81.85
2023-03-27T06:55:24.315Z,81.34
2023-03-27T06:57:54.442Z,80.70
2023-03-27T07:00:26.207Z,80.23
2023-03-27T07:03:08.742Z,78.87
2023-03-27T07:05:41.306Z,78.27
2023-03-27T07:08:22.371Z,77.82
2023-03-27T07:11:07.359Z,76.36
2023-03-27T07:13:41.270Z,74.89
2023-03-27T07:16:13.828Z,75.08
2023-03-27T07:18:42.180Z,74.46
2023-03-27T07:21:10.610Z,74.10
2023-03-27T07:23:38.842Z,74.00
2023-03-27T07:26:08.770Z,73.66
2023-03-27T07:28:38.643Z,73.23
2023-03-27T07:31:16.639Z,72.62
2023-03-27T07:34:00.125Z,71.68
2023-03-27T07:36:30.143Z,71.03
2023-03-27T07:38:59.442Z,69.99
2023-03-27T07:41:31.509Z,68.81
2023-03-27T07:43:59.814Z,67.37
2023-03-27T07:46:28.251Z,66.98
2023-03-27T07:48:57.021Z,65.16
2023-03-27T07:51:25.390Z,64.11
2023-03-27T07:53:58.988Z,61.60
2023-03-27T07:56:32.029Z,61.47
2023-03-27T07:59:05.007Z,60.25
2023-03-27T08:01:34.477Z,60.69
2023-03-27T08:04:05.963Z,59.43
2023-03-27T08:06:34.672Z,59.76
2023-03-27T08:09:05.968Z,59.82
2023-03-27T08:11:40.023Z,59.73
2023-03-27T08:14:09.497Z,59.85
2023-03-27T08:16:37.775Z,60.76
2023-03-27T08:19:06.859Z,60.96
2023-03-27T08:21:34.994Z,60.73
2023-03-27T08:24:04.899Z,59.66
2023-03-27T08:26:33.845Z,59.27
2023-03-27T08:29:02.021Z,58.20
2023-03-27T08:31:31.431Z,57.58
2023-03-27T08:33:59.412Z,56.90
2023-03-27T08:36:32.085Z,57.57
2023-03-27T08:39:03.115Z,58.18
2023-03-27T08:41:39.109Z,58.63
2023-03-27T08:44:13.530Z,58.95
2023-03-27T08:46:50.151Z,59.38
2023-03-27T08:49:22.536Z,59.58
2023-03-27T08:52:14.699Z,59.46
2023-03-27T08:54:46.604Z,58.61
2023-03-27T08:57:23.155Z,59.56
2023-03-27T08:59:59.956Z,59.27
2023-03-27T09:02:55.968Z,60.21
2023-03-27T09:05:30.583Z,61.69
2023-03-27T09:08:10.658Z,61.92
2023-03-27T09:11:11.494Z,61.62
2023-03-27T09:13:52.599Z,61.79
2023-03-27T09:16:32.236Z,62.05
2023-03-27T09:19:12.056Z,62.08
2023-03-27T09:21:47.027Z,62.67
2023-03-27T09:24:29.629Z,62.18
2023-03-27T09:27:07.316Z,62.03
2023-03-27T09:29:41.791Z,61.99
2023-03-27T09:32:15.764Z,61.29
2023-03-27T09:34:44.312Z,61.30
2023-03-27T09:37:14.638Z,60.99
2023-03-27T09:39:52.437Z,60.81
2023-03-27T09:42:33.407Z,61.02
2023-03-27T09:45:06.480Z,61.44
2023-03-27T09:47:40.768Z,61.57
2023-03-27T09:50:41.541Z,62.00
2023-03-27T09:53:19.245Z,61.15
2023-03-27T09:55:53.239Z,61.26
2023-03-27T09:58:23.388Z,61.85
2023-03-27T10:01:07.861Z,62.17
2023-03-27T10:03:48.689Z,62.20
2023-03-27T10:06:39.551Z,61.86
2023-03-27T10:09:23.225Z,62.12
2023-03-27T10:12:00.574Z,62.31
2023-03-27T10:14:30.049Z,62.18
2023-03-27T10:16:58.156Z,61.22
2023-03-27T10:19:35.602Z,61.31
2023-03-27T10:22:20.368Z,61.10
2023-03-27T10:24:49.831Z,60.52
2023-03-27T10:27:25.508Z,61.26
2023-03-27T10:29:53.373Z,60.42
2023-03-27T10:32:45.402Z,59.58
2023-03-27T10:35:29.027Z,60.05
2023-03-27T10:37:57.649Z,59.13
2023-03-27T10:40:30.194Z,58.29
2023-03-27T10:43:06.187Z,58.26
2023-03-27T10:45:54.635Z,58.39
2023-03-27T10:48:38.418Z,57.96
2023-03-27T10:51:28.360Z,58.64
2023-03-27T10:54:12.069Z,58.39
2023-03-27T10:57:03.633Z,57.42
2023-03-27T11:00:10.699Z,56.02
2023-03-27T11:03:09.986Z,55.88
2023-03-27T11:05:44.632Z,54.13
2023-03-27T11:09:07.102Z,55.58
2023-03-27T11:11:52.221Z,53.19
2023-03-27T11:14:43.322Z,54.38
2023-03-27T11:17:16.218Z,54.89
2023-03-27T11:19:56.887Z,54.04
2023-03-27T11:22:57.139Z,53.16
2023-03-27T11:25:54.777Z,53.67
2023-03-27T11:28:59.835Z,54.22
2023-03-27T11:32:08.766Z,53.25
2023-03-27T11:35:22.885Z,54.33
2023-03-27T11:38:25.305Z,54.86
2023-03-27T11:40:54.957Z,54.25
2023-03-27T11:43:28.218Z,53.31
2023-03-27T11:46:09.998Z,53.41
2023-03-27T11:48:49.801Z,53.58
2023-03-27T11:51:21.526Z,53.06
2023-03-27T11:54:17.118Z,49.34
2023-03-27T11:56:59.371Z,49.20
2023-03-27T11:59:43.002Z,49.07
2023-03-27T12:02:47.742Z,50.08
2023-03-27T12:05:48.785Z,51.04
2023-03-27T12:08:27.444Z,48.43
2023-03-27T12:10:58.119Z,46.86
2023-03-27T12:14:02.282Z,45.75
2023-03-27T12:24:03.290Z,45.61
2023-03-27T12:27:33.740Z,46.16
2023-03-27T12:34:39.445Z,47.08
2023-03-27T12:37:41.988Z,45.94
2023-03-27T12:44:28.058Z,43.77
2023-03-27T13:01:42.032Z,46.78
2023-03-27T13:08:38.483Z,45.20
2023-03-27T13:11:40.991Z,45.32
2023-03-27T13:14:35.290Z,44.34
2023-03-27T13:18:04.876Z,43.62
2023-03-27T13:24:40.646Z,44.06
2023-03-27T14:18:51.424Z,54.19
2023-03-27T14:50:57.004Z,61.51
2023-03-27T14:54:11.733Z,62.15
2023-03-27T15:11:41.310Z,64.62
2023-03-27T15:53:42.418Z,62.07
2023-03-27T15:56:38.330Z,61.57
2023-03-27T15:59:15.558Z,61.53
2023-03-27T16:01:54.095Z,61.82
2023-03-27T16:07:09.695Z,62.26
2023-03-27T16:20:48.647Z,63.10
2023-03-27T16:34:34.033Z,64.85
2023-03-27T16:47:41.734Z,64.80
2023-03-27T16:50:22.038Z,64.89
2023-03-27T16:52:53.050Z,65.29
2023-03-27T16:55:28.623Z,65.40
2023-03-27T16:57:57.505Z,65.78
2023-03-27T17:00:34.146Z,66.16
2023-03-27T17:03:02.376Z,66.52
2023-03-27T17:05:51.834Z,67.09
2023-03-27T17:08:21.491Z,67.09
2023-03-27T17:10:50.124Z,66.82
2023-03-27T17:13:20.738Z,67.09
2023-03-27T17:15:55.678Z,67.33
2023-03-27T17:19:55.529Z,67.02
2023-03-27T17:24:06.122Z,65.81
2023-03-27T17:28:07.242Z,65.42
2023-03-27T17:31:14.543Z,64.67
2023-03-27T17:34:30.786Z,64.52
2023-03-27T17:38:06.700Z,64.49
2023-03-27T17:41:49.320Z,64.77
2023-03-27T17:45:24.078Z,65.04
2023-03-27T17:49:06.596Z,65.25
2023-03-27T17:52:50.045Z,65.63
2023-03-27T18:07:05.544Z,65.88
2023-03-27T18:10:21.774Z,65.84
2023-03-27T18:12:55.138Z,65.48
2023-03-27T18:15:21.927Z,65.58
2023-03-27T18:17:49.834Z,64.64
2023-03-27T18:20:16.921Z,64.59
2023-03-27T18:23:46.061Z,64.17
2023-03-27T18:51:41.861Z,62.28
2023-03-27T18:54:10.241Z,62.28
2023-03-27T18:56:40.406Z,62.35
2023-03-27T18:59:11.378Z,62.60
2023-03-27T19:01:39.746Z,62.81
2023-03-27T19:04:09.777Z,62.37
2023-03-27T19:06:39.811Z,62.70
2023-03-27T19:09:10.850Z,62.95
2023-03-27T19:11:40.164Z,63.16
2023-03-27T19:14:11.563Z,63.21
2023-03-27T19:17:21.197Z,62.61
2023-03-27T19:20:02.455Z,61.88
2023-03-27T19:22:32.877Z,61.92
2023-03-27T19:25:05.155Z,62.04
2023-03-27T19:27:38.749Z,62.23
2023-03-27T19:30:12.086Z,61.50
2023-03-27T19:33:37.769Z,61.79
2023-03-27T19:36:12.097Z,62.05
2023-03-27T19:38:40.656Z,62.48
2023-03-27T19:41:12.903Z,62.45
2023-03-27T19:43:41.118Z,62.73
2023-03-27T19:48:42.020Z,63.21
2023-03-27T19:51:10.000Z,63.21
2023-03-27T19:53:42.216Z,63.31
2023-03-27T19:56:11.961Z,63.33
2023-03-27T19:58:43.727Z,63.48
2023-03-27T20:01:18.766Z,63.52
2023-03-27T20:03:50.715Z,63.31
2023-03-27T20:06:24.305Z,63.32
2023-03-27T20:08:54.093Z,63.39
2023-03-27T20:11:31.161Z,63.47
2023-03-27T20:14:03.186Z,63.60
2023-03-27T20:16:50.163Z,63.94
2023-03-27T20:19:22.792Z,63.94
2023-03-27T20:22:02.605Z,63.82
2023-03-27T20:24:30.908Z,63.73
2023-03-27T20:27:22.145Z,63.73
2023-03-27T20:29:58.402Z,63.47
2023-03-27T20:32:27.915Z,63.55
2023-03-27T20:35:24.709Z,63.91
2023-03-27T20:37:59.273Z,64.31
2023-03-27T20:40:32.860Z,64.38
2023-03-27T20:43:06.375Z,64.11
2023-03-27T20:45:34.472Z,63.89
2023-03-27T20:48:06.951Z,63.63
2023-03-27T20:50:36.971Z,63.56
2023-03-27T20:53:09.993Z,63.63
2023-03-27T20:55:49.595Z,63.60
2023-03-27T20:58:28.829Z,63.43
2023-03-27T21:01:38.028Z,63.37
2023-03-27T21:04:07.196Z,63.55
2023-03-27T21:06:36.717Z,63.83
2023-03-27T21:16:42.476Z,64.63
2023-03-27T21:19:14.332Z,64.65
2023-03-27T21:21:42.247Z,64.82
2023-03-27T21:24:10.619Z,64.60
2023-03-27T21:26:39.324Z,64.59
2023-03-27T21:29:15.482Z,64.86
2023-03-27T21:31:43.695Z,65.04
2023-03-27T21:34:35.432Z,65.17
2023-03-27T21:37:03.532Z,65.26
2023-03-27T21:39:32.035Z,65.37
2023-03-27T21:42:04.531Z,65.47
2023-03-27T21:44:33.598Z,65.79
2023-03-27T21:56:50.278Z,66.20
2023-03-27T21:59:18.766Z,66.06
2023-03-27T22:01:50.875Z,65.98
2023-03-27T22:04:21.693Z,66.14
2023-03-27T22:06:52.326Z,66.19
2023-03-27T22:09:20.390Z,66.19
2023-03-27T22:11:48.402Z,66.29
2023-03-27T22:14:19.562Z,66.42
2023-03-27T22:16:48.499Z,66.51
2023-03-27T22:19:17.238Z,66.61
2023-03-27T22:21:47.798Z,66.77
2023-03-27T22:24:16.165Z,66.87
2023-03-27T22:26:44.345Z,66.89
2023-03-27T22:29:12.923Z,67.05
2023-03-27T22:31:40.994Z,67.02
2023-03-27T22:34:10.169Z,66.97
2023-03-27T22:36:41.601Z,67.01
2023-03-27T22:39:09.610Z,67.13
2023-03-27T22:41:37.761Z,66.98
2023-03-27T22:44:08.645Z,66.71
2023-03-27T22:46:58.930Z,66.99
2023-03-27T22:49:27.323Z,67.04
2023-03-27T22:51:56.432Z,67.08
2023-03-27T22:54:24.672Z,67.17
2023-03-27T22:56:55.529Z,67.29
2023-03-27T22:59:24.108Z,67.33
2023-03-27T23:06:06.751Z,67.73
2023-03-27T23:08:37.018Z,67.88
2023-03-27T23:11:08.085Z,67.98
2023-03-27T23:13:41.459Z,67.89
2023-03-27T23:16:11.026Z,68.05
2023-03-27T23:18:39.789Z,68.27
2023-03-27T23:21:11.052Z,68.48
2023-03-27T23:23:40.798Z,68.70
2023-03-27T23:26:10.396Z,68.89
2023-03-27T23:28:41.759Z,69.00
2023-03-27T23:31:15.743Z,69.14
2023-03-27T23:34:35.644Z,69.33
2023-03-27T23:37:08.070Z,69.37
2023-03-27T23:39:36.106Z,69.49
2023-03-27T23:42:04.105Z,69.52
2023-03-27T23:44:32.211Z,69.54
2023-03-27T23:47:00.434Z,69.66
2023-03-27T23:49:29.257Z,69.79
2023-03-27T23:51:57.414Z,70.07
2023-03-27T23:54:25.507Z,70.02
2023-03-27T23:56:54.491Z,69.99
2023-03-27T23:59:22.537Z,70.24
